createdAt,value
2022-08-21T00:00:01.734Z,51.76
2022-08-21T00:14:57.022Z,52.43
2022-08-21T00:29:50.260Z,53.03
2022-08-21T00:44:45.059Z,53.67
2022-08-21T00:59:35.990Z,54.44
2022-08-21T01:14:27.185Z,55.40
2022-08-21T01:29:23.888Z,55.85
2022-08-21T01:44:19.496Z,56.38
2022-08-21T01:59:11.095Z,56.99
2022-08-21T02:28:52.608Z,58.24
2022-08-21T02:43:43.666Z,58.29
2022-08-21T02:58:34.835Z,58.56
2022-08-21T03:13:25.994Z,58.90
2022-08-21T03:28:17.556Z,59.40
2022-08-21T03:43:08.545Z,59.70
2022-08-21T03:58:01.013Z,59.96
2022-08-21T04:12:54.286Z,60.44
2022-08-21T04:27:44.899Z,61.52
2022-08-21T04:42:36.490Z,61.81
2022-08-21T04:57:36.717Z,62.54
2022-08-21T05:12:18.879Z,63.33
2022-08-21T05:27:10.744Z,62.98
2022-08-21T05:42:02.604Z,62.10
2022-08-21T05:56:53.890Z,61.56
2022-08-21T06:11:46.201Z,60.56
2022-08-21T06:26:38.787Z,59.51
2022-08-21T06:41:31.879Z,58.38
2022-08-21T06:56:27.801Z,57.74
2022-08-21T07:11:23.074Z,56.98
2022-08-21T07:26:15.633Z,56.55
2022-08-21T07:41:16.695Z,55.37
2022-08-21T07:56:09.003Z,55.06
2022-08-21T08:11:01.453Z,54.05
2022-08-21T08:25:53.982Z,52.67
2022-08-21T08:40:48.940Z,51.32
2022-08-21T08:55:44.500Z,50.46
2022-08-21T09:10:39.861Z,49.93
2022-08-21T09:25:34.200Z,48.56
2022-08-21T09:40:38.957Z,46.93
2022-08-21T09:55:58.453Z,45.21
2022-08-21T10:10:57.117Z,44.22
2022-08-21T10:26:12.787Z,43.75
2022-08-21T10:41:01.478Z,42.28
2022-08-21T10:55:58.037Z,40.12
2022-08-21T11:11:02.273Z,40.36
2022-08-21T11:26:00.641Z,38.34
2022-08-21T11:40:55.315Z,36.92
2022-08-21T11:55:51.265Z,35.88
2022-08-21T12:10:49.427Z,35.34
2022-08-21T12:25:48.522Z,33.81
2022-08-21T12:40:44.321Z,33.33
2022-08-21T12:55:35.920Z,31.68
2022-08-21T13:10:29.085Z,30.52
2022-08-21T13:25:21.144Z,30.79
2022-08-21T13:40:14.104Z,31.25
2022-08-21T13:55:10.170Z,30.92
2022-08-21T14:10:20.570Z,29.85
2022-08-21T14:25:18.799Z,28.24
2022-08-21T14:40:12.570Z,26.80
2022-08-21T14:55:07.141Z,26.97
2022-08-21T15:10:01.622Z,26.60
2022-08-21T15:24:55.853Z,26.29
2022-08-21T15:39:54.085Z,24.66
2022-08-21T15:54:38.979Z,25.62
2022-08-21T17:31:10.339Z,27.79
2022-08-21T18:46:58.596Z,30.97
2022-08-21T19:01:53.022Z,32.03
2022-08-21T19:16:46.977Z,31.87
2022-08-21T19:31:34.567Z,33.50
2022-08-21T19:46:28.347Z,35.97
2022-08-21T20:01:25.257Z,37.42
2022-08-21T20:16:16.157Z,38.35
2022-08-21T20:31:09.468Z,39.41
2022-08-21T20:45:58.651Z,38.85
2022-08-21T21:00:50.218Z,40.00
2022-08-21T21:15:41.180Z,39.61
2022-08-21T21:30:33.044Z,40.14
2022-08-21T21:45:26.878Z,41.56
2022-08-21T22:00:52.162Z,40.76
2022-08-21T22:15:46.834Z,40.95
2022-08-21T22:30:50.533Z,40.80
2022-08-21T22:46:00.692Z,41.17
2022-08-21T23:01:12.458Z,41.52
2022-08-21T23:16:21.422Z,41.89
2022-08-21T23:31:42.356Z,42.98
2022-08-21T23:46:55.210Z,43.01
